• Join FlightAware (Why Join?)
  • Login
  • US Flag 
10:23AM EDT


 

Airport Tracker/Info


-or-


 

Live Flight TrackerFlight Track Log ✈ N710VL ✈ 23-Jun-2013 ✈ KGPT - KMGM

Flight Track Log - Related Links

Times and Time Zones

All times are in EDT time to prevent confusion due to time zone crossing. See the N710VL flight status page for this flight to view local times or setup timezone preferences in your user account.

Time Position Orientation Groundspeed Altitude Reporting Facility
EDT Latitude Longitude Course Direction KTS MPH feet Rate Location/Type
01:45PM 30.3797 -89.0339 52° Northeast 195 224 2,300  Level Houston Center
01:46PM 30.4039 -88.9889 58° Northeast 175 201 5,100 2,880 Climbing Houston Center
01:47PM 30.4542 -88.9475 35° Northeast 183 211 8,300 2,520 Climbing Houston Center
01:48PM 30.4953 -88.9122 36° Northeast 189 217 10,400 1,980 Climbing Houston Center
01:49PM 30.5433 -88.8686 38° Northeast 212 244 12,500 1,920 Climbing Houston Center
01:50PM 30.6818 -88.6773 52° Northeast  Level FlightAware Approximate
01:50PM 30.5947 -88.8197 39° Northeast 235 270 14,400  Level Houston Center
01:51PM 30.6433 -88.7622 45° Northeast 251 289 16,400 1,740 Climbing Houston Center
01:52PM 30.6956 -88.6858 52° Northeast 252 290 18,000 1,200 Climbing Houston Center
01:53PM 30.7433 -88.6178 51° Northeast 270 311 19,000 480 Climbing Houston Center
01:54PM 30.8094 -88.5519 41° Northeast 309 356 19,000  Level Houston Center
01:55PM 30.8839 -88.4881 36° Northeast 329 379 19,000  Level Houston Center
01:56PM 30.9614 -88.4267 34° Northeast 335 386 19,000  Level Houston Center
01:57PM 31.0397 -88.3603 36° Northeast 343 395 19,000  Level Houston Center
01:58PM 31.1211 -88.2972 34° Northeast 341 392 19,000  Level Houston Center
01:59PM 31.2028 -88.2364 32° Northeast 347 399 19,000  Level Houston Center
02:00PM 31.2714 -88.1292 53° Northeast 341 392 19,000  Level Houston Center
02:01PM 31.3264 -88.0369 55° Northeast 345 397 19,000  Level Houston Center
02:02PM 31.3828 -87.9453 54° Northeast 347 399 19,000  Level Houston Center
02:03PM 31.4364 -87.8519 56° Northeast 345 397 19,000  Level Houston Center
02:04PM 31.4900 -87.7594 56° Northeast 344 396 19,000  Level Houston Center
02:05PM 31.5453 -87.6675 55° Northeast 344 396 19,100  Climbing Houston Center
02:06PM 31.6153 -87.5594 53° Northeast 346 398 19,000 -60 Descending Houston Center
02:07PM 31.6672 -87.4658 57° Northeast 345 397 19,000  Level Houston Center
02:08PM 31.7267 -87.3789 51° Northeast 342 394 19,000  Level Atlanta Center
02:09PM 31.7750 -87.2831 59° Northeast 342 394 19,000 -540 Level Atlanta Center
02:10PM 31.8339 -87.1872 54° Northeast 342 394 18,000 -1,140 Descending Atlanta Center
02:11PM 31.8883 -87.0914 56° Northeast 342 394 16,800 -1,320 Descending Atlanta Center
02:12PM 31.9472 -86.9956 54° Northeast 347 399 15,400 -1,500 Descending Atlanta Center
02:13PM 32.0058 -86.8994 54° Northeast 352 405 13,800 -1,740 Descending Atlanta Center
02:14PM 32.0642 -86.8033 54° Northeast 352 405 12,000 -2,100 Descending Atlanta Center
02:15PM 32.1183 -86.7217 52° Northeast 336 387 9,700 -2,640 Descending Atlanta Center
02:16PM 32.1717 -86.6619 43° Northeast 297 342 6,800 -2,520 Descending Atlanta Center
02:17PM 32.2308 -86.6317 23° Northeast 243 280 4,700 -1,620 Descending Atlanta Center
02:18PM 32.2792 -86.6111 20° North 209 241 3,600 -900 Descending Atlanta Center
02:19PM 32.2992 -86.5600 65° Northeast 168 193 3,000 -840 Descending Atlanta Center
02:20PM 32.3106 -86.5086 75° East 156 180 2,000 -1,020 Descending Atlanta Center
02:22PM 32.3020 -86.4098 48° Northeast  Level Estimated
02:29PM 32.3006 -86.3940 48° Northeast  Level Estimated
02:30PM 32.3006 -86.3940 48° Northeast  Level Estimated